Pottersville, Missouri
Current Conditions -  °F | °C
As of 3:53 AM on Saturday 01 Nov 2014 (Local Time) from KUNO Reporting Station
Clear Clear  
Wind Chill: 22°   Ceiling: Unl
Heat Index: 30°   Visibility: 10mi
Dew Point: 19°   Wind: 8mph
Humidity: 64%   Direction: 10°N
Pressure: 30.39"   Gusts: NA
Location:  36.7°N, 92.03°W
Report Text: KUNO 010853Z AUTO 01007KT 10SM CLR M01/M07 A3039 RMK AO2 SLP299 T10111072 53003
Loading
Personal Weather Stations






























Interactive Weather Map New forecast layout! Learn more

10-Day Weather Forecast

Advertisements
Track Severe Weather on mobile